»·PEaware :: TPX780 KLAS-KSAN

TPX780 :: KLAS-KSAN

FLIGHT INFORMATION

Flight Status: Arrived
Operator: ATP Experience
More flights by this operator :: More flights under this callsign
Pilot: Dave P. (45)
Aircraft: BOEING 737-800
(B738)
More flights by this aircraft type
Origin: KLAS McCarran Intl
United States
Destination: KSAN San Diego Intl-Lindbergh
United States
More flights between these airports :: More routes between these airports
Route: BOACH8 LVELL LUCKI1
File this flight plan on PilotEdge
Remarks: PBN / A1B1C1D1S1S2 DOF / 180626 REG / N738PM OPR / TPX PER / D RMK / TCAS SIMBRIEF
Altitude:
(Current/Filed)
28,000ft
Speed:
(Current/Filed)
472kts
Departed: 25-Jun-18 05:46 PM
Arrived: 25-Jun-18 06:30 PM
Distance/Time
Traveled:
225nm/0:44
Distance/Time
To Go:
Arrived

Flight Plot

Page will automatically refresh every two minutes.

Flight plan parsing failed; only flown route is shown


Map Options




Map Legend


Flown Route
Filed Route
Departure Airport
Arrival Airport
Navaid (VOR, NDB)
Fix

Horizontal Profiles

Position Reports

Time Latitude Longitude Heading Altitude Ground
Speed
25-Jun-18 17:22 36.080824 -115.138358 315 2189ft 0kts
25-Jun-18 17:23 36.080824 -115.138358 315 2189ft 0kts
25-Jun-18 17:24 36.080824 -115.138358 315 2189ft 0kts
25-Jun-18 17:25 36.080824 -115.138358 315 2189ft 0kts
25-Jun-18 17:26 36.080824 -115.138358 315 2189ft 0kts
25-Jun-18 17:27 36.080824 -115.138358 315 2189ft 0kts
25-Jun-18 17:28 36.080824 -115.138358 315 2189ft 0kts
25-Jun-18 17:29 36.080824 -115.138358 315 2189ft 0kts
25-Jun-18 17:30 36.080824 -115.138358 315 2189ft 0kts
25-Jun-18 17:31 36.080824 -115.138358 315 2189ft 0kts
25-Jun-18 17:32 36.080824 -115.138358 315 2189ft 0kts
25-Jun-18 17:33 36.080824 -115.138358 315 2189ft 0kts
25-Jun-18 17:34 36.080824 -115.138358 315 2189ft 0kts
25-Jun-18 17:35 36.080824 -115.138358 315 2189ft 0kts
25-Jun-18 17:36 36.080824 -115.138358 315 2189ft 0kts
25-Jun-18 17:37 36.080521 -115.137768 277 2189ft 2kts
25-Jun-18 17:38 36.080575 -115.137340 245 2189ft 0kts
25-Jun-18 17:39 36.080561 -115.137378 243 2189ft 2kts
25-Jun-18 17:40 36.078838 -115.139595 201 2189ft 0kts
25-Jun-18 17:41 36.078237 -115.136990 89 2189ft 20kts
25-Jun-18 17:42 36.078243 -115.130141 90 2189ft 22kts
25-Jun-18 17:43 36.078247 -115.123760 91 2189ft 13kts
25-Jun-18 17:44 36.076397 -115.121439 235 2189ft 8kts
25-Jun-18 17:45 36.076351 -115.121742 268 2189ft 0kts
25-Jun-18 17:46 36.076340 -115.133265 269 2189ft 116kts
25-Jun-18 17:47 36.076789 -115.190541 266 3618ft 181kts
25-Jun-18 17:48 36.065826 -115.258090 219 4717ft 240kts
25-Jun-18 17:49 35.997095 -115.289471 200 6691ft 278kts
25-Jun-18 17:50 35.919670 -115.308114 185 9421ft 292kts
25-Jun-18 17:51 35.834554 -115.313461 175 11308ft 337kts
25-Jun-18 17:52 35.734468 -115.301167 174 13220ft 372kts
25-Jun-18 17:53 35.629145 -115.295970 182 15738ft 387kts
25-Jun-18 17:54 35.519630 -115.300942 181 18089ft 401kts
25-Jun-18 17:55 35.405882 -115.305439 181 20234ft 414kts
25-Jun-18 17:56 35.289207 -115.310041 181 22161ft 425kts
25-Jun-18 17:57 35.169405 -115.314747 182 23844ft 436kts
25-Jun-18 17:58 35.046397 -115.319596 182 25345ft 446kts
25-Jun-18 17:59 34.921058 -115.324498 182 26739ft 455kts
25-Jun-18 18:00 34.794497 -115.332190 189 27833ft 455kts
25-Jun-18 18:01 34.675002 -115.376681 200 27856ft 450kts
25-Jun-18 18:02 34.557047 -115.428874 200 27866ft 450kts
25-Jun-18 18:03 34.439505 -115.480161 200 27875ft 449kts
25-Jun-18 18:04 34.322743 -115.533366 206 27885ft 448kts
25-Jun-18 18:05 34.215343 -115.610105 208 27871ft 448kts
25-Jun-18 18:06 34.099908 -115.667257 201 27864ft 449kts
25-Jun-18 18:07 33.983637 -115.721833 201 27850ft 449kts
25-Jun-18 18:08 33.867436 -115.777542 202 27827ft 448kts
25-Jun-18 18:09 33.752874 -115.833466 201 27798ft 437kts
25-Jun-18 18:10 33.641209 -115.885636 201 26785ft 422kts
25-Jun-18 18:11 33.533967 -115.938932 212 24715ft 411kts
25-Jun-18 18:12 33.459511 -116.040197 235 22613ft 403kts
25-Jun-18 18:13 33.396197 -116.149332 234 20621ft 393kts
25-Jun-18 18:14 33.329220 -116.249594 216 18753ft 382kts
25-Jun-18 18:15 33.235769 -116.309954 206 16656ft 379kts
25-Jun-18 18:16 33.141862 -116.364707 206 14738ft 369kts
25-Jun-18 18:17 33.051325 -116.417483 206 12979ft 358kts
25-Jun-18 18:18 32.969372 -116.479390 221 11494ft 340kts
25-Jun-18 18:19 32.899700 -116.550923 220 10310ft 321kts
25-Jun-18 18:20 32.836961 -116.614192 221 9433ft 279kts
25-Jun-18 18:21 32.779636 -116.673114 228 8118ft 279kts
25-Jun-18 18:22 32.739676 -116.750142 241 6959ft 262kts
25-Jun-18 18:23 32.706319 -116.821729 246 5897ft 237kts
25-Jun-18 18:24 32.684610 -116.890929 249 4963ft 209kts
25-Jun-18 18:25 32.668267 -116.950827 281 3913ft 191kts
25-Jun-18 18:26 32.687793 -117.006702 290 3569ft 189kts
25-Jun-18 18:27 32.703739 -117.066763 285 2348ft 185kts
25-Jun-18 18:28 32.716945 -117.121153 286 1263ft 156kts
25-Jun-18 18:29 32.728184 -117.167498 286 336ft 141kts
25-Jun-18 18:30 32.734388 -117.194422 251 23ft 9kts
25-Jun-18 18:31 32.734138 -117.194889 207 23ft 1kts
25-Jun-18 18:32 32.732796 -117.194583 250 23ft 4kts
25-Jun-18 18:33 32.732865 -117.195491 273 23ft 0kts
25-Jun-18 18:34 32.732865 -117.195491 273 23ft 0kts
25-Jun-18 18:35 32.732865 -117.195491 273 23ft 0kts
25-Jun-18 18:36 32.732865 -117.195491 273 23ft 0kts

Navigation Log

Ident Type
Flight plan parsing failed, navigation log unavailable